sensor_id;sensor_type;location;lat;lon;timestamp;P1;durP1;ratioP1;P2;durP2;ratioP2
65045;SDS011;54657;52.022;5.534;2023-02-28T00:00:03;7.10;;;3.70;;
65045;SDS011;54657;52.022;5.534;2023-02-28T00:02:39;5.65;;;3.75;;
65045;SDS011;54657;52.022;5.534;2023-02-28T00:05:07;7.38;;;3.92;;
65045;SDS011;54657;52.022;5.534;2023-02-28T00:07:34;5.60;;;3.90;;
65045;SDS011;54657;52.022;5.534;2023-02-28T00:10:00;7.43;;;3.95;;
65045;SDS011;54657;52.022;5.534;2023-02-28T00:12:26;4.97;;;3.03;;
65045;SDS011;54657;52.022;5.534;2023-02-28T00:14:51;4.80;;;2.95;;
65045;SDS011;54657;52.022;5.534;2023-02-28T00:17:17;5.78;;;3.75;;
65045;SDS011;54657;52.022;5.534;2023-02-28T00:19:46;5.50;;;3.40;;
65045;SDS011;54657;52.022;5.534;2023-02-28T00:22:13;5.40;;;2.85;;
65045;SDS011;54657;52.022;5.534;2023-02-28T00:24:39;4.60;;;3.45;;
65045;SDS011;54657;52.022;5.534;2023-02-28T00:27:05;4.80;;;3.15;;
65045;SDS011;54657;52.022;5.534;2023-02-28T00:29:30;6.00;;;3.22;;
65045;SDS011;54657;52.022;5.534;2023-02-28T00:31:56;5.82;;;3.20;;
65045;SDS011;54657;52.022;5.534;2023-02-28T00:34:21;6.75;;;3.78;;
65045;SDS011;54657;52.022;5.534;2023-02-28T00:36:47;4.55;;;2.80;;
65045;SDS011;54657;52.022;5.534;2023-02-28T00:39:15;4.22;;;2.90;;
65045;SDS011;54657;52.022;5.534;2023-02-28T00:41:41;4.55;;;2.88;;
65045;SDS011;54657;52.022;5.534;2023-02-28T00:44:06;3.38;;;2.55;;
65045;SDS011;54657;52.022;5.534;2023-02-28T00:46:32;3.63;;;2.78;;
65045;SDS011;54657;52.022;5.534;2023-02-28T00:48:57;4.05;;;3.00;;
65045;SDS011;54657;52.022;5.534;2023-02-28T00:51:23;5.03;;;3.17;;
65045;SDS011;54657;52.022;5.534;2023-02-28T00:53:49;4.65;;;2.83;;
65045;SDS011;54657;52.022;5.534;2023-02-28T00:56:14;7.72;;;2.92;;
65045;SDS011;54657;52.022;5.534;2023-02-28T00:58:40;4.82;;;3.00;;
65045;SDS011;54657;52.022;5.534;2023-02-28T01:01:06;3.40;;;2.90;;
65045;SDS011;54657;52.022;5.534;2023-02-28T01:03:32;6.38;;;3.55;;
65045;SDS011;54657;52.022;5.534;2023-02-28T01:05:58;5.88;;;3.13;;
65045;SDS011;54657;52.022;5.534;2023-02-28T01:08:23;14.43;;;7.85;;
65045;SDS011;54657;52.022;5.534;2023-02-28T01:10:50;5.50;;;3.92;;
65045;SDS011;54657;52.022;5.534;2023-02-28T01:13:16;4.38;;;2.70;;
65045;SDS011;54657;52.022;5.534;2023-02-28T01:15:47;3.40;;;2.92;;
65045;SDS011;54657;52.022;5.534;2023-02-28T01:18:16;4.70;;;3.08;;
65045;SDS011;54657;52.022;5.534;2023-02-28T01:20:42;4.90;;;2.85;;
65045;SDS011;54657;52.022;5.534;2023-02-28T01:23:08;5.32;;;2.85;;
65045;SDS011;54657;52.022;5.534;2023-02-28T01:25:34;5.07;;;2.80;;
65045;SDS011;54657;52.022;5.534;2023-02-28T01:28:01;4.28;;;2.70;;
65045;SDS011;54657;52.022;5.534;2023-02-28T01:30:27;4.35;;;2.60;;
65045;SDS011;54657;52.022;5.534;2023-02-28T01:32:53;4.45;;;2.60;;
65045;SDS011;54657;52.022;5.534;2023-02-28T01:35:18;5.72;;;3.10;;
65045;SDS011;54657;52.022;5.534;2023-02-28T01:37:44;5.75;;;3.25;;
65045;SDS011;54657;52.022;5.534;2023-02-28T01:40:11;5.68;;;2.60;;
65045;SDS011;54657;52.022;5.534;2023-02-28T01:42:37;3.88;;;2.60;;
65045;SDS011;54657;52.022;5.534;2023-02-28T01:45:16;3.72;;;2.60;;
65045;SDS011;54657;52.022;5.534;2023-02-28T01:47:43;5.00;;;2.85;;
65045;SDS011;54657;52.022;5.534;2023-02-28T01:50:14;4.03;;;2.88;;
65045;SDS011;54657;52.022;5.534;2023-02-28T01:52:46;3.47;;;2.58;;
65045;SDS011;54657;52.022;5.534;2023-02-28T01:55:13;4.30;;;2.83;;
65045;SDS011;54657;52.022;5.534;2023-02-28T01:57:43;3.38;;;3.08;;
65045;SDS011;54657;52.022;5.534;2023-02-28T02:00:14;3.30;;;2.60;;
65045;SDS011;54657;52.022;5.534;2023-02-28T02:02:42;3.38;;;2.53;;
65045;SDS011;54657;52.022;5.534;2023-02-28T02:05:12;3.85;;;2.72;;
65045;SDS011;54657;52.022;5.534;2023-02-28T02:07:41;5.32;;;3.35;;
65045;SDS011;54657;52.022;5.534;2023-02-28T02:10:14;5.30;;;3.15;;
65045;SDS011;54657;52.022;5.534;2023-02-28T02:17:57;4.65;;;2.88;;
65045;SDS011;54657;52.022;5.534;2023-02-28T02:25:54;5.35;;;3.30;;
65045;SDS011;54657;52.022;5.534;2023-02-28T02:28:44;5.82;;;2.80;;
65045;SDS011;54657;52.022;5.534;2023-02-28T02:31:37;3.95;;;2.40;;
65045;SDS011;54657;52.022;5.534;2023-02-28T02:34:44;3.70;;;2.75;;
65045;SDS011;54657;52.022;5.534;2023-02-28T02:37:17;3.20;;;2.53;;
65045;SDS011;54657;52.022;5.534;2023-02-28T02:42:49;5.43;;;2.75;;
65045;SDS011;54657;52.022;5.534;2023-02-28T02:45:31;3.03;;;2.70;;
65045;SDS011;54657;52.022;5.534;2023-02-28T02:48:04;4.53;;;2.70;;
65045;SDS011;54657;52.022;5.534;2023-02-28T02:50:38;4.15;;;2.78;;
65045;SDS011;54657;52.022;5.534;2023-02-28T02:53:07;5.75;;;2.92;;
65045;SDS011;54657;52.022;5.534;2023-02-28T02:55:37;4.45;;;2.95;;
65045;SDS011;54657;52.022;5.534;2023-02-28T02:58:07;4.90;;;3.10;;
65045;SDS011;54657;52.022;5.534;2023-02-28T03:00:42;3.78;;;2.70;;
65045;SDS011;54657;52.022;5.534;2023-02-28T03:03:12;3.35;;;2.53;;
65045;SDS011;54657;52.022;5.534;2023-02-28T03:05:44;6.05;;;2.70;;
65045;SDS011;54657;52.022;5.534;2023-02-28T03:08:13;9.07;;;3.35;;
65045;SDS011;54657;52.022;5.534;2023-02-28T03:15:47;3.78;;;2.55;;
65045;SDS011;54657;52.022;5.534;2023-02-28T03:18:36;5.15;;;2.55;;
65045;SDS011;54657;52.022;5.534;2023-02-28T03:21:27;4.47;;;2.63;;
65045;SDS011;54657;52.022;5.534;2023-02-28T03:24:14;3.47;;;2.60;;
65045;SDS011;54657;52.022;5.534;2023-02-28T03:26:50;4.90;;;2.63;;
65045;SDS011;54657;52.022;5.534;2023-02-28T03:32:04;2.95;;;2.20;;
65045;SDS011;54657;52.022;5.534;2023-02-28T03:34:41;5.32;;;2.30;;
65045;SDS011;54657;52.022;5.534;2023-02-28T03:37:15;5.80;;;2.75;;
65045;SDS011;54657;52.022;5.534;2023-02-28T03:39:45;5.28;;;2.90;;
65045;SDS011;54657;52.022;5.534;2023-02-28T03:42:19;4.95;;;2.65;;
65045;SDS011;54657;52.022;5.534;2023-02-28T03:44:49;5.18;;;2.67;;
65045;SDS011;54657;52.022;5.534;2023-02-28T03:50:20;2.92;;;2.63;;
65045;SDS011;54657;52.022;5.534;2023-02-28T03:52:52;4.50;;;2.65;;
65045;SDS011;54657;52.022;5.534;2023-02-28T03:55:26;5.30;;;2.88;;
65045;SDS011;54657;52.022;5.534;2023-02-28T03:57:59;4.78;;;2.92;;
65045;SDS011;54657;52.022;5.534;2023-02-28T04:00:34;2.72;;;2.10;;
65045;SDS011;54657;52.022;5.534;2023-02-28T04:03:05;3.25;;;2.75;;
65045;SDS011;54657;52.022;5.534;2023-02-28T04:05:30;4.20;;;2.95;;
65045;SDS011;54657;52.022;5.534;2023-02-28T04:08:03;5.00;;;3.38;;
65045;SDS011;54657;52.022;5.534;2023-02-28T04:10:30;3.53;;;3.00;;
65045;SDS011;54657;52.022;5.534;2023-02-28T04:12:56;3.65;;;2.55;;
65045;SDS011;54657;52.022;5.534;2023-02-28T04:15:21;3.35;;;2.35;;
65045;SDS011;54657;52.022;5.534;2023-02-28T04:17:49;3.03;;;2.38;;
65045;SDS011;54657;52.022;5.534;2023-02-28T04:20:15;3.75;;;2.30;;
65045;SDS011;54657;52.022;5.534;2023-02-28T04:22:41;5.03;;;2.17;;
65045;SDS011;54657;52.022;5.534;2023-02-28T04:25:06;3.35;;;2.33;;
65045;SDS011;54657;52.022;5.534;2023-02-28T04:27:32;4.10;;;2.50;;
65045;SDS011;54657;52.022;5.534;2023-02-28T04:29:58;3.10;;;1.92;;
65045;SDS011;54657;52.022;5.534;2023-02-28T04:32:23;3.22;;;2.20;;
65045;SDS011;54657;52.022;5.534;2023-02-28T04:34:49;4.82;;;2.10;;
65045;SDS011;54657;52.022;5.534;2023-02-28T04:37:14;3.35;;;2.30;;
65045;SDS011;54657;52.022;5.534;2023-02-28T04:39:40;3.17;;;2.13;;
65045;SDS011;54657;52.022;5.534;2023-02-28T04:42:06;6.72;;;2.38;;
65045;SDS011;54657;52.022;5.534;2023-02-28T04:44:32;2.25;;;1.80;;
65045;SDS011;54657;52.022;5.534;2023-02-28T04:46:57;2.70;;;1.80;;
65045;SDS011;54657;52.022;5.534;2023-02-28T04:49:25;2.38;;;1.63;;
65045;SDS011;54657;52.022;5.534;2023-02-28T04:51:50;2.40;;;1.65;;
65045;SDS011;54657;52.022;5.534;2023-02-28T04:54:16;2.85;;;1.90;;
65045;SDS011;54657;52.022;5.534;2023-02-28T04:56:42;2.72;;;1.83;;
65045;SDS011;54657;52.022;5.534;2023-02-28T04:59:08;2.22;;;1.70;;
65045;SDS011;54657;52.022;5.534;2023-02-28T05:01:34;2.75;;;1.80;;
65045;SDS011;54657;52.022;5.534;2023-02-28T05:04:02;3.40;;;1.70;;
65045;SDS011;54657;52.022;5.534;2023-02-28T05:06:29;1.85;;;1.65;;
65045;SDS011;54657;52.022;5.534;2023-02-28T05:08:56;2.10;;;1.90;;
65045;SDS011;54657;52.022;5.534;2023-02-28T05:13:59;2.85;;;1.50;;
65045;SDS011;54657;52.022;5.534;2023-02-28T05:16:26;1.77;;;1.30;;
65045;SDS011;54657;52.022;5.534;2023-02-28T05:18:51;2.85;;;1.70;;
65045;SDS011;54657;52.022;5.534;2023-02-28T05:21:26;3.05;;;1.42;;
65045;SDS011;54657;52.022;5.534;2023-02-28T05:24:06;4.75;;;1.75;;
65045;SDS011;54657;52.022;5.534;2023-02-28T05:26:35;2.35;;;1.80;;
65045;SDS011;54657;52.022;5.534;2023-02-28T05:29:02;4.75;;;1.80;;
65045;SDS011;54657;52.022;5.534;2023-02-28T05:31:28;1.95;;;1.52;;
65045;SDS011;54657;52.022;5.534;2023-02-28T05:33:53;3.22;;;1.88;;
65045;SDS011;54657;52.022;5.534;2023-02-28T05:36:19;3.50;;;1.75;;
65045;SDS011;54657;52.022;5.534;2023-02-28T05:38:46;3.35;;;1.90;;
65045;SDS011;54657;52.022;5.534;2023-02-28T05:41:13;2.45;;;1.92;;
65045;SDS011;54657;52.022;5.534;2023-02-28T05:43:38;1.77;;;1.67;;
65045;SDS011;54657;52.022;5.534;2023-02-28T05:46:05;2.00;;;1.65;;
65045;SDS011;54657;52.022;5.534;2023-02-28T05:48:32;2.17;;;1.52;;
65045;SDS011;54657;52.022;5.534;2023-02-28T05:50:59;3.20;;;1.65;;
65045;SDS011;54657;52.022;5.534;2023-02-28T05:53:25;3.60;;;1.75;;
65045;SDS011;54657;52.022;5.534;2023-02-28T05:55:51;3.15;;;1.80;;
65045;SDS011;54657;52.022;5.534;2023-02-28T05:58:17;2.17;;;1.80;;
65045;SDS011;54657;52.022;5.534;2023-02-28T06:00:42;2.30;;;1.80;;
65045;SDS011;54657;52.022;5.534;2023-02-28T06:03:08;3.00;;;1.70;;
65045;SDS011;54657;52.022;5.534;2023-02-28T06:05:33;3.08;;;2.17;;
65045;SDS011;54657;52.022;5.534;2023-02-28T06:07:59;3.17;;;1.92;;
65045;SDS011;54657;52.022;5.534;2023-02-28T06:10:24;2.25;;;1.92;;
65045;SDS011;54657;52.022;5.534;2023-02-28T06:12:50;4.07;;;1.85;;
65045;SDS011;54657;52.022;5.534;2023-02-28T06:15:15;3.63;;;1.90;;
65045;SDS011;54657;52.022;5.534;2023-02-28T06:17:42;3.88;;;1.80;;
65045;SDS011;54657;52.022;5.534;2023-02-28T06:20:09;3.10;;;1.70;;
65045;SDS011;54657;52.022;5.534;2023-02-28T06:22:38;3.17;;;2.17;;
65045;SDS011;54657;52.022;5.534;2023-02-28T06:25:04;3.72;;;2.20;;
65045;SDS011;54657;52.022;5.534;2023-02-28T06:27:31;4.05;;;1.90;;
65045;SDS011;54657;52.022;5.534;2023-02-28T06:29:57;2.83;;;2.30;;
65045;SDS011;54657;52.022;5.534;2023-02-28T06:32:23;3.40;;;2.30;;
65045;SDS011;54657;52.022;5.534;2023-02-28T06:34:48;4.72;;;2.40;;
65045;SDS011;54657;52.022;5.534;2023-02-28T06:37:15;2.72;;;2.50;;
65045;SDS011;54657;52.022;5.534;2023-02-28T06:39:41;3.47;;;2.60;;
65045;SDS011;54657;52.022;5.534;2023-02-28T06:42:07;5.75;;;3.65;;
65045;SDS011;54657;52.022;5.534;2023-02-28T06:44:32;6.60;;;4.13;;
65045;SDS011;54657;52.022;5.534;2023-02-28T06:46:59;4.18;;;3.03;;
65045;SDS011;54657;52.022;5.534;2023-02-28T06:49:29;4.85;;;2.92;;
65045;SDS011;54657;52.022;5.534;2023-02-28T06:51:56;3.55;;;2.80;;
65045;SDS011;54657;52.022;5.534;2023-02-28T06:54:21;2.95;;;2.25;;
65045;SDS011;54657;52.022;5.534;2023-02-28T06:56:47;3.05;;;2.53;;
65045;SDS011;54657;52.022;5.534;2023-02-28T06:59:12;4.25;;;2.25;;
65045;SDS011;54657;52.022;5.534;2023-02-28T07:01:38;3.30;;;2.20;;
65045;SDS011;54657;52.022;5.534;2023-02-28T07:04:05;3.70;;;2.13;;
65045;SDS011;54657;52.022;5.534;2023-02-28T07:06:31;3.20;;;1.63;;
65045;SDS011;54657;52.022;5.534;2023-02-28T07:08:57;2.53;;;2.30;;
65045;SDS011;54657;52.022;5.534;2023-02-28T07:11:23;5.30;;;2.45;;
65045;SDS011;54657;52.022;5.534;2023-02-28T07:13:53;4.88;;;2.67;;
65045;SDS011;54657;52.022;5.534;2023-02-28T07:16:20;2.42;;;2.10;;
65045;SDS011;54657;52.022;5.534;2023-02-28T07:18:46;3.25;;;2.50;;
65045;SDS011;54657;52.022;5.534;2023-02-28T07:21:12;3.58;;;2.13;;
65045;SDS011;54657;52.022;5.534;2023-02-28T07:23:38;4.80;;;2.42;;
65045;SDS011;54657;52.022;5.534;2023-02-28T07:26:04;4.68;;;2.50;;
65045;SDS011;54657;52.022;5.534;2023-02-28T07:28:31;4.07;;;2.60;;
65045;SDS011;54657;52.022;5.534;2023-02-28T07:30:57;2.45;;;2.17;;
65045;SDS011;54657;52.022;5.534;2023-02-28T07:33:27;3.90;;;2.47;;
65045;SDS011;54657;52.022;5.534;2023-02-28T07:35:59;3.20;;;2.22;;
65045;SDS011;54657;52.022;5.534;2023-02-28T07:38:26;3.38;;;2.30;;
65045;SDS011;54657;52.022;5.534;2023-02-28T07:40:51;2.80;;;2.40;;
65045;SDS011;54657;52.022;5.534;2023-02-28T07:43:17;2.83;;;2.40;;
65045;SDS011;54657;52.022;5.534;2023-02-28T07:45:43;5.28;;;2.63;;
65045;SDS011;54657;52.022;5.534;2023-02-28T07:48:08;4.57;;;2.70;;
65045;SDS011;54657;52.022;5.534;2023-02-28T07:50:34;5.60;;;2.92;;
65045;SDS011;54657;52.022;5.534;2023-02-28T07:53:00;3.63;;;2.88;;
65045;SDS011;54657;52.022;5.534;2023-02-28T07:55:26;4.78;;;2.67;;
65045;SDS011;54657;52.022;5.534;2023-02-28T07:57:52;4.05;;;2.45;;
65045;SDS011;54657;52.022;5.534;2023-02-28T08:00:18;6.97;;;3.63;;
65045;SDS011;54657;52.022;5.534;2023-02-28T08:02:43;3.33;;;2.83;;
65045;SDS011;54657;52.022;5.534;2023-02-28T08:05:09;4.13;;;2.50;;
65045;SDS011;54657;52.022;5.534;2023-02-28T08:07:34;4.28;;;2.60;;
65045;SDS011;54657;52.022;5.534;2023-02-28T08:10:00;2.55;;;2.35;;
65045;SDS011;54657;52.022;5.534;2023-02-28T08:12:26;3.33;;;2.45;;
65045;SDS011;54657;52.022;5.534;2023-02-28T08:14:51;2.80;;;2.10;;
65045;SDS011;54657;52.022;5.534;2023-02-28T08:17:17;2.30;;;1.95;;
65045;SDS011;54657;52.022;5.534;2023-02-28T08:19:45;2.40;;;2.08;;
65045;SDS011;54657;52.022;5.534;2023-02-28T08:22:11;4.20;;;2.03;;
65045;SDS011;54657;52.022;5.534;2023-02-28T08:24:36;2.47;;;1.77;;
65045;SDS011;54657;52.022;5.534;2023-02-28T08:27:02;2.53;;;1.67;;
65045;SDS011;54657;52.022;5.534;2023-02-28T08:29:27;4.13;;;1.80;;
65045;SDS011;54657;52.022;5.534;2023-02-28T08:31:55;2.35;;;1.70;;
65045;SDS011;54657;52.022;5.534;2023-02-28T08:34:20;2.70;;;2.05;;
65045;SDS011;54657;52.022;5.534;2023-02-28T08:36:46;1.73;;;1.63;;
65045;SDS011;54657;52.022;5.534;2023-02-28T08:39:12;2.95;;;1.77;;
65045;SDS011;54657;52.022;5.534;2023-02-28T08:41:37;2.10;;;1.90;;
65045;SDS011;54657;52.022;5.534;2023-02-28T08:44:03;1.92;;;1.73;;
65045;SDS011;54657;52.022;5.534;2023-02-28T08:46:29;2.35;;;1.70;;
65045;SDS011;54657;52.022;5.534;2023-02-28T08:48:55;3.53;;;1.80;;
65045;SDS011;54657;52.022;5.534;2023-02-28T08:51:24;2.03;;;1.63;;
65045;SDS011;54657;52.022;5.534;2023-02-28T08:53:54;1.35;;;1.23;;
65045;SDS011;54657;52.022;5.534;2023-02-28T08:56:24;1.88;;;1.50;;
65045;SDS011;54657;52.022;5.534;2023-02-28T08:58:50;2.63;;;1.60;;
65045;SDS011;54657;52.022;5.534;2023-02-28T09:01:20;1.45;;;1.20;;
65045;SDS011;54657;52.022;5.534;2023-02-28T09:03:48;2.15;;;1.20;;
65045;SDS011;54657;52.022;5.534;2023-02-28T09:06:15;2.40;;;1.50;;
65045;SDS011;54657;52.022;5.534;2023-02-28T09:08:42;2.95;;;1.40;;
65045;SDS011;54657;52.022;5.534;2023-02-28T09:11:08;2.83;;;1.30;;
65045;SDS011;54657;52.022;5.534;2023-02-28T09:13:34;1.77;;;1.67;;
65045;SDS011;54657;52.022;5.534;2023-02-28T09:16:01;2.90;;;1.02;;
65045;SDS011;54657;52.022;5.534;2023-02-28T09:18:28;1.63;;;1.50;;
65045;SDS011;54657;52.022;5.534;2023-02-28T09:20:54;2.13;;;1.52;;
65045;SDS011;54657;52.022;5.534;2023-02-28T09:23:21;1.42;;;1.20;;
65045;SDS011;54657;52.022;5.534;2023-02-28T09:25:51;1.48;;;1.30;;
65045;SDS011;54657;52.022;5.534;2023-02-28T09:28:18;2.38;;;1.40;;
65045;SDS011;54657;52.022;5.534;2023-02-28T09:30:44;1.33;;;1.23;;
65045;SDS011;54657;52.022;5.534;2023-02-28T09:33:12;1.40;;;1.30;;
65045;SDS011;54657;52.022;5.534;2023-02-28T09:35:38;1.45;;;1.20;;
65045;SDS011;54657;52.022;5.534;2023-02-28T09:38:04;1.90;;;1.40;;
65045;SDS011;54657;52.022;5.534;2023-02-28T09:40:34;1.90;;;1.73;;
65045;SDS011;54657;52.022;5.534;2023-02-28T09:43:11;1.70;;;1.60;;
65045;SDS011;54657;52.022;5.534;2023-02-28T09:45:40;4.03;;;1.40;;
65045;SDS011;54657;52.022;5.534;2023-02-28T09:48:16;1.40;;;1.30;;
65045;SDS011;54657;52.022;5.534;2023-02-28T09:50:46;1.20;;;1.13;;
65045;SDS011;54657;52.022;5.534;2023-02-28T09:53:28;4.18;;;1.13;;
65045;SDS011;54657;52.022;5.534;2023-02-28T09:55:59;1.60;;;1.50;;
65045;SDS011;54657;52.022;5.534;2023-02-28T09:59:15;1.35;;;1.25;;
65045;SDS011;54657;52.022;5.534;2023-02-28T10:06:50;1.92;;;1.20;;
65045;SDS011;54657;52.022;5.534;2023-02-28T10:12:05;1.50;;;1.40;;
65045;SDS011;54657;52.022;5.534;2023-02-28T10:14:32;1.67;;;1.20;;
65045;SDS011;54657;52.022;5.534;2023-02-28T10:17:01;1.27;;;1.17;;
65045;SDS011;54657;52.022;5.534;2023-02-28T10:22:17;1.65;;;1.30;;
65045;SDS011;54657;52.022;5.534;2023-02-28T10:24:51;1.40;;;1.30;;
65045;SDS011;54657;52.022;5.534;2023-02-28T10:27:20;1.35;;;1.25;;
65045;SDS011;54657;52.022;5.534;2023-02-28T10:29:48;1.42;;;1.23;;
65045;SDS011;54657;52.022;5.534;2023-02-28T10:32:20;1.35;;;1.15;;
65045;SDS011;54657;52.022;5.534;2023-02-28T10:37:33;1.35;;;1.25;;
65045;SDS011;54657;52.022;5.534;2023-02-28T10:40:04;3.58;;;1.40;;
65045;SDS011;54657;52.022;5.534;2023-02-28T10:42:30;1.30;;;1.20;;
65045;SDS011;54657;52.022;5.534;2023-02-28T10:45:13;1.55;;;1.45;;
65045;SDS011;54657;52.022;5.534;2023-02-28T10:56:23;1.35;;;1.17;;
65045;SDS011;54657;52.022;5.534;2023-02-28T11:01:12;1.85;;;1.40;;
65045;SDS011;54657;52.022;5.534;2023-02-28T11:03:40;2.58;;;1.60;;
65045;SDS011;54657;52.022;5.534;2023-02-28T11:06:07;1.63;;;1.50;;
65045;SDS011;54657;52.022;5.534;2023-02-28T11:08:58;1.90;;;1.20;;
65045;SDS011;54657;52.022;5.534;2023-02-28T11:11:26;2.05;;;1.40;;
65045;SDS011;54657;52.022;5.534;2023-02-28T11:14:02;1.48;;;1.35;;
65045;SDS011;54657;52.022;5.534;2023-02-28T11:16:34;3.63;;;1.23;;
65045;SDS011;54657;52.022;5.534;2023-02-28T11:19:02;1.80;;;1.60;;
65045;SDS011;54657;52.022;5.534;2023-02-28T11:21:36;1.40;;;1.30;;
65045;SDS011;54657;52.022;5.534;2023-02-28T11:24:07;2.17;;;1.33;;
65045;SDS011;54657;52.022;5.534;2023-02-28T11:26:49;2.63;;;1.40;;
65045;SDS011;54657;52.022;5.534;2023-02-28T11:29:19;2.35;;;1.60;;
65045;SDS011;54657;52.022;5.534;2023-02-28T11:34:42;2.15;;;1.70;;
65045;SDS011;54657;52.022;5.534;2023-02-28T11:37:15;1.50;;;1.40;;
65045;SDS011;54657;52.022;5.534;2023-02-28T11:39:43;1.35;;;1.25;;
65045;SDS011;54657;52.022;5.534;2023-02-28T11:42:17;1.45;;;1.30;;
65045;SDS011;54657;52.022;5.534;2023-02-28T11:45:18;2.60;;;1.45;;
65045;SDS011;54657;52.022;5.534;2023-02-28T11:56:41;1.50;;;1.40;;
65045;SDS011;54657;52.022;5.534;2023-02-28T11:59:36;1.30;;;1.20;;
65045;SDS011;54657;52.022;5.534;2023-02-28T12:02:33;1.40;;;1.23;;
65045;SDS011;54657;52.022;5.534;2023-02-28T12:10:47;1.63;;;1.52;;
65045;SDS011;54657;52.022;5.534;2023-02-28T12:13:48;5.65;;;1.40;;
65045;SDS011;54657;52.022;5.534;2023-02-28T12:28:30;1.63;;;1.50;;
65045;SDS011;54657;52.022;5.534;2023-02-28T12:31:12;1.40;;;1.20;;
65045;SDS011;54657;52.022;5.534;2023-02-28T12:33:45;1.77;;;1.27;;
65045;SDS011;54657;52.022;5.534;2023-02-28T12:36:16;1.87;;;1.20;;
65045;SDS011;54657;52.022;5.534;2023-02-28T12:41:45;1.50;;;1.40;;
65045;SDS011;54657;52.022;5.534;2023-02-28T12:44:51;1.60;;;1.25;;
65045;SDS011;54657;52.022;5.534;2023-02-28T12:47:17;3.03;;;1.42;;
65045;SDS011;54657;52.022;5.534;2023-02-28T12:49:48;1.52;;;1.42;;
65045;SDS011;54657;52.022;5.534;2023-02-28T12:52:21;3.40;;;2.40;;
65045;SDS011;54657;52.022;5.534;2023-02-28T12:55:13;1.60;;;1.50;;
65045;SDS011;54657;52.022;5.534;2023-02-28T13:00:38;2.03;;;1.30;;
65045;SDS011;54657;52.022;5.534;2023-02-28T13:03:21;1.50;;;1.25;;
65045;SDS011;54657;52.022;5.534;2023-02-28T13:09:09;1.92;;;1.23;;
65045;SDS011;54657;52.022;5.534;2023-02-28T13:11:45;2.42;;;1.40;;
65045;SDS011;54657;52.022;5.534;2023-02-28T13:14:25;1.77;;;1.53;;
65045;SDS011;54657;52.022;5.534;2023-02-28T13:19:46;1.67;;;1.58;;
65045;SDS011;54657;52.022;5.534;2023-02-28T13:24:54;1.55;;;1.45;;
65045;SDS011;54657;52.022;5.534;2023-02-28T13:29:50;4.38;;;1.88;;
65045;SDS011;54657;52.022;5.534;2023-02-28T13:32:31;2.75;;;1.60;;
65045;SDS011;54657;52.022;5.534;2023-02-28T13:42:47;1.83;;;1.58;;
65045;SDS011;54657;52.022;5.534;2023-02-28T13:48:00;1.45;;;1.35;;
65045;SDS011;54657;52.022;5.534;2023-02-28T13:50:37;2.13;;;1.70;;
65045;SDS011;54657;52.022;5.534;2023-02-28T14:06:56;2.10;;;1.60;;
65045;SDS011;54657;52.022;5.534;2023-02-28T14:11:55;1.83;;;1.73;;
65045;SDS011;54657;52.022;5.534;2023-02-28T14:17:05;2.90;;;1.70;;
65045;SDS011;54657;52.022;5.534;2023-02-28T14:19:35;2.45;;;1.48;;
65045;SDS011;54657;52.022;5.534;2023-02-28T14:38:17;2.63;;;1.58;;
65045;SDS011;54657;52.022;5.534;2023-02-28T14:40:46;1.40;;;1.30;;
65045;SDS011;54657;52.022;5.534;2023-02-28T14:43:24;1.83;;;1.40;;
65045;SDS011;54657;52.022;5.534;2023-02-28T14:45:51;1.70;;;1.30;;
65045;SDS011;54657;52.022;5.534;2023-02-28T14:48:25;2.65;;;1.30;;
65045;SDS011;54657;52.022;5.534;2023-02-28T14:50:53;1.58;;;1.30;;
65045;SDS011;54657;52.022;5.534;2023-02-28T14:53:22;2.20;;;1.42;;
65045;SDS011;54657;52.022;5.534;2023-02-28T14:55:50;1.40;;;1.30;;
65045;SDS011;54657;52.022;5.534;2023-02-28T14:58:27;1.48;;;1.38;;
65045;SDS011;54657;52.022;5.534;2023-02-28T15:00:58;1.30;;;1.20;;
65045;SDS011;54657;52.022;5.534;2023-02-28T15:05:57;1.73;;;1.33;;
65045;SDS011;54657;52.022;5.534;2023-02-28T15:08:25;3.55;;;1.63;;
65045;SDS011;54657;52.022;5.534;2023-02-28T15:13:43;1.73;;;1.63;;
65045;SDS011;54657;52.022;5.534;2023-02-28T15:16:11;1.25;;;1.15;;
65045;SDS011;54657;52.022;5.534;2023-02-28T15:18:49;1.55;;;1.45;;
65045;SDS011;54657;52.022;5.534;2023-02-28T15:21:22;1.90;;;1.65;;
65045;SDS011;54657;52.022;5.534;2023-02-28T15:23:55;1.50;;;1.40;;
65045;SDS011;54657;52.022;5.534;2023-02-28T15:26:26;2.00;;;1.42;;
65045;SDS011;54657;52.022;5.534;2023-02-28T15:29:04;2.20;;;1.70;;
65045;SDS011;54657;52.022;5.534;2023-02-28T15:31:33;1.60;;;1.48;;
65045;SDS011;54657;52.022;5.534;2023-02-28T15:41:00;1.52;;;1.42;;
65045;SDS011;54657;52.022;5.534;2023-02-28T15:43:27;2.67;;;1.55;;
65045;SDS011;54657;52.022;5.534;2023-02-28T15:46:00;1.52;;;1.42;;
65045;SDS011;54657;52.022;5.534;2023-02-28T15:51:01;2.00;;;1.77;;
65045;SDS011;54657;52.022;5.534;2023-02-28T15:53:40;1.55;;;1.30;;
65045;SDS011;54657;52.022;5.534;2023-02-28T15:59:04;2.33;;;2.13;;
65045;SDS011;54657;52.022;5.534;2023-02-28T16:01:32;2.90;;;2.28;;
65045;SDS011;54657;52.022;5.534;2023-02-28T16:04:03;2.83;;;2.33;;
65045;SDS011;54657;52.022;5.534;2023-02-28T16:06:32;3.13;;;2.20;;
65045;SDS011;54657;52.022;5.534;2023-02-28T16:09:00;3.25;;;1.73;;
65045;SDS011;54657;52.022;5.534;2023-02-28T16:11:26;2.05;;;1.60;;
65045;SDS011;54657;52.022;5.534;2023-02-28T16:13:52;1.90;;;1.60;;
65045;SDS011;54657;52.022;5.534;2023-02-28T16:16:19;1.85;;;1.75;;
65045;SDS011;54657;52.022;5.534;2023-02-28T16:18:49;1.70;;;1.60;;
65045;SDS011;54657;52.022;5.534;2023-02-28T16:21:25;2.38;;;1.33;;
65045;SDS011;54657;52.022;5.534;2023-02-28T16:24:07;1.55;;;1.45;;
65045;SDS011;54657;52.022;5.534;2023-02-28T16:26:33;2.58;;;1.60;;
65045;SDS011;54657;52.022;5.534;2023-02-28T16:29:00;1.77;;;1.60;;
65045;SDS011;54657;52.022;5.534;2023-02-28T16:31:27;1.50;;;1.40;;
65045;SDS011;54657;52.022;5.534;2023-02-28T16:33:53;2.40;;;1.73;;
65045;SDS011;54657;52.022;5.534;2023-02-28T16:36:23;2.25;;;1.77;;
65045;SDS011;54657;52.022;5.534;2023-02-28T16:38:53;1.95;;;1.70;;
65045;SDS011;54657;52.022;5.534;2023-02-28T16:41:20;1.67;;;1.50;;
65045;SDS011;54657;52.022;5.534;2023-02-28T16:47:38;3.03;;;1.90;;
65045;SDS011;54657;52.022;5.534;2023-02-28T16:50:20;2.15;;;1.90;;
65045;SDS011;54657;52.022;5.534;2023-02-28T16:52:54;1.60;;;1.50;;
65045;SDS011;54657;52.022;5.534;2023-02-28T16:55:23;2.53;;;1.75;;
65045;SDS011;54657;52.022;5.534;2023-02-28T17:01:25;2.30;;;1.63;;
65045;SDS011;54657;52.022;5.534;2023-02-28T17:04:01;2.00;;;1.80;;
65045;SDS011;54657;52.022;5.534;2023-02-28T17:09:20;2.05;;;1.85;;
65045;SDS011;54657;52.022;5.534;2023-02-28T17:12:30;1.67;;;1.58;;
65045;SDS011;54657;52.022;5.534;2023-02-28T17:14:56;3.85;;;2.10;;
65045;SDS011;54657;52.022;5.534;2023-02-28T17:17:21;3.40;;;2.25;;
65045;SDS011;54657;52.022;5.534;2023-02-28T17:20:00;3.28;;;2.10;;
65045;SDS011;54657;52.022;5.534;2023-02-28T17:22:42;2.78;;;2.00;;
65045;SDS011;54657;52.022;5.534;2023-02-28T17:26:08;4.22;;;2.70;;
65045;SDS011;54657;52.022;5.534;2023-02-28T17:28:20;2.80;;;2.47;;
65045;SDS011;54657;52.022;5.534;2023-02-28T17:30:47;2.72;;;2.33;;
65045;SDS011;54657;52.022;5.534;2023-02-28T17:33:19;2.85;;;2.28;;
65045;SDS011;54657;52.022;5.534;2023-02-28T17:36:02;2.72;;;2.00;;
65045;SDS011;54657;52.022;5.534;2023-02-28T17:38:39;3.70;;;2.00;;
65045;SDS011;54657;52.022;5.534;2023-02-28T17:41:19;2.80;;;2.40;;
65045;SDS011;54657;52.022;5.534;2023-02-28T17:43:57;3.35;;;2.60;;
65045;SDS011;54657;52.022;5.534;2023-02-28T17:46:24;2.67;;;2.42;;
65045;SDS011;54657;52.022;5.534;2023-02-28T17:48:55;5.57;;;2.90;;
65045;SDS011;54657;52.022;5.534;2023-02-28T17:51:39;3.35;;;2.22;;
65045;SDS011;54657;52.022;5.534;2023-02-28T17:57:10;3.13;;;2.60;;
65045;SDS011;54657;52.022;5.534;2023-02-28T18:00:03;3.90;;;2.78;;